createdAt,value
2018-09-27T00:00:15.515Z,9.03
2018-09-27T00:02:45.353Z,9.30
2018-09-27T00:05:15.301Z,9.37
2018-09-27T00:07:45.128Z,9.63
2018-09-27T00:10:14.899Z,8.60
2018-09-27T00:12:44.795Z,9.40
2018-09-27T00:15:14.655Z,9.33
2018-09-27T00:17:44.445Z,9.40
2018-09-27T00:20:14.312Z,9.73
2018-09-27T00:22:44.186Z,9.93
2018-09-27T00:25:13.383Z,10.20
2018-09-27T00:27:43.236Z,9.83
2018-09-27T00:30:13.078Z,9.40
2018-09-27T00:32:42.224Z,9.00
2018-09-27T00:35:12.225Z,8.47
2018-09-27T00:37:42.024Z,7.87
2018-09-27T00:40:11.880Z,8.47
2018-09-27T00:42:41.715Z,7.87
2018-09-27T00:45:11.598Z,7.10
2018-09-27T00:47:41.524Z,6.87
2018-09-27T00:50:11.321Z,5.97
2018-09-27T00:52:41.262Z,6.20
2018-09-27T00:55:10.974Z,6.87
2018-09-27T00:57:40.931Z,7.73
2018-09-27T01:00:10.776Z,8.60
2018-09-27T01:02:40.669Z,9.10
2018-09-27T01:05:09.860Z,8.97
2018-09-27T01:07:39.619Z,8.87
2018-09-27T01:10:09.174Z,11.07
2018-09-27T01:12:38.725Z,15.33
2018-09-27T01:15:08.449Z,13.60
2018-09-27T01:17:37.986Z,12.00
2018-09-27T01:20:07.606Z,10.77
2018-09-27T01:22:37.263Z,9.17
2018-09-27T01:25:06.991Z,8.60
2018-09-27T01:27:36.685Z,8.40
2018-09-27T01:30:07.381Z,8.00
2018-09-27T01:32:37.012Z,9.07
2018-09-27T01:35:06.703Z,9.13
2018-09-27T01:37:36.346Z,10.43
2018-09-27T01:40:05.961Z,11.37
2018-09-27T01:42:35.596Z,9.50
2018-09-27T01:45:04.658Z,8.00
2018-09-27T01:47:34.283Z,7.43
2018-09-27T01:50:03.919Z,6.13
2018-09-27T01:52:33.458Z,6.00
2018-09-27T01:55:02.958Z,5.40
2018-09-27T01:57:32.535Z,5.47
2018-09-27T02:00:02.065Z,6.10
2018-09-27T02:02:31.686Z,5.70
2018-09-27T02:05:01.239Z,5.73
2018-09-27T02:07:30.828Z,6.13
2018-09-27T02:10:00.417Z,6.67
2018-09-27T02:12:29.981Z,7.07
2018-09-27T02:14:59.648Z,7.40
2018-09-27T02:17:29.168Z,6.97
2018-09-27T02:19:58.773Z,7.00
2018-09-27T02:22:28.361Z,8.03
2018-09-27T02:24:57.975Z,7.80
2018-09-27T02:27:27.509Z,8.03
2018-09-27T02:29:57.078Z,8.20
2018-09-27T02:32:26.661Z,8.37
2018-09-27T02:34:56.254Z,8.20
2018-09-27T02:37:26.000Z,8.23
2018-09-27T02:39:55.570Z,8.93
2018-09-27T02:42:25.185Z,9.10
2018-09-27T02:44:54.744Z,9.00
2018-09-27T02:47:24.265Z,8.87
2018-09-27T02:49:53.876Z,9.17
2018-09-27T02:52:23.598Z,8.60
2018-09-27T02:54:53.257Z,8.70
2018-09-27T02:57:22.881Z,8.80
2018-09-27T02:59:52.439Z,8.30
2018-09-27T03:02:22.198Z,8.83
2018-09-27T03:04:51.758Z,9.60
2018-09-27T03:07:21.345Z,8.67
2018-09-27T03:09:50.878Z,8.67
2018-09-27T03:12:20.449Z,9.50
2018-09-27T03:14:49.970Z,9.00
2018-09-27T03:17:19.601Z,9.03
2018-09-27T03:19:49.137Z,9.33
2018-09-27T03:22:18.787Z,10.40
2018-09-27T03:24:48.349Z,8.80
2018-09-27T03:27:17.883Z,9.33
2018-09-27T03:29:47.448Z,8.93
2018-09-27T03:32:17.026Z,10.23
2018-09-27T03:34:46.549Z,8.40
2018-09-27T03:37:16.101Z,8.53
2018-09-27T03:39:45.693Z,7.97
2018-09-27T03:42:15.234Z,8.07
2018-09-27T03:44:44.795Z,8.10
2018-09-27T03:47:14.461Z,7.57
2018-09-27T03:49:43.969Z,7.93
2018-09-27T03:52:13.518Z,7.80
2018-09-27T03:54:42.636Z,7.80
2018-09-27T03:57:12.414Z,8.07
2018-09-27T04:01:11.274Z,8.60
2018-09-27T04:03:40.916Z,8.60
2018-09-27T04:06:10.547Z,8.63
2018-09-27T04:08:40.129Z,9.30
2018-09-27T04:11:09.775Z,8.57
2018-09-27T04:13:39.604Z,8.90
2018-09-27T04:16:09.617Z,8.90
2018-09-27T04:18:39.203Z,8.40
2018-09-27T04:21:08.792Z,8.93
2018-09-27T04:23:38.370Z,8.80
2018-09-27T04:26:08.029Z,8.53
2018-09-27T04:28:37.658Z,9.00
2018-09-27T04:31:06.708Z,7.63
2018-09-27T04:33:36.284Z,8.97
2018-09-27T04:36:05.836Z,8.67
2018-09-27T04:38:35.434Z,7.60
2018-09-27T04:41:04.969Z,7.20
2018-09-27T04:43:34.733Z,7.17
2018-09-27T04:46:04.322Z,6.70
2018-09-27T04:48:36.299Z,7.03
2018-09-27T04:51:06.001Z,6.43
2018-09-27T04:53:35.605Z,5.63
2018-09-27T04:56:05.320Z,5.57
2018-09-27T04:58:34.867Z,5.80
2018-09-27T05:01:04.421Z,6.13
2018-09-27T05:03:34.067Z,5.67
2018-09-27T05:06:03.674Z,5.77
2018-09-27T05:08:33.212Z,6.20
2018-09-27T05:11:02.834Z,6.20
2018-09-27T05:13:32.362Z,6.40
2018-09-27T05:16:01.872Z,6.07
2018-09-27T05:18:31.532Z,6.83
2018-09-27T05:21:01.100Z,7.13
2018-09-27T05:23:30.658Z,9.40
2018-09-27T05:26:00.211Z,7.90
2018-09-27T05:28:29.726Z,6.97
2018-09-27T05:30:59.305Z,7.30
2018-09-27T05:33:28.895Z,7.47
2018-09-27T05:35:58.504Z,7.70
2018-09-27T05:38:28.074Z,7.00
2018-09-27T05:40:57.722Z,7.43
2018-09-27T05:43:27.390Z,7.53
2018-09-27T05:45:57.013Z,8.50
2018-09-27T05:48:26.555Z,7.37
2018-09-27T05:50:56.213Z,7.70
2018-09-27T05:53:25.285Z,7.70
2018-09-27T05:55:55.065Z,6.67
2018-09-27T05:58:24.630Z,7.13
2018-09-27T06:00:54.274Z,8.20
2018-09-27T06:03:23.950Z,7.43
2018-09-27T06:05:53.730Z,7.97
2018-09-27T06:08:23.461Z,7.10
2018-09-27T06:10:53.111Z,7.37
2018-09-27T06:13:22.728Z,7.63
2018-09-27T06:15:52.363Z,7.73
2018-09-27T06:18:22.172Z,7.62
2018-09-27T06:20:52.017Z,7.37
2018-09-27T06:23:21.057Z,7.17
2018-09-27T06:25:50.882Z,7.97
2018-09-27T06:28:20.517Z,8.37
2018-09-27T06:30:50.160Z,7.50
2018-09-27T06:33:19.746Z,8.38
2018-09-27T06:35:49.344Z,8.00
2018-09-27T06:38:19.007Z,7.00
2018-09-27T06:40:49.804Z,7.23
2018-09-27T06:43:19.473Z,7.50
2018-09-27T06:45:49.131Z,7.73
2018-09-27T06:48:19.924Z,6.50
2018-09-27T06:50:49.892Z,7.62
2018-09-27T06:53:19.500Z,7.30
2018-09-27T06:55:49.095Z,7.00
2018-09-27T06:58:18.852Z,7.87
2018-09-27T07:00:48.673Z,6.90
2018-09-27T07:03:18.396Z,6.47
2018-09-27T07:05:48.047Z,5.97
2018-09-27T07:08:17.734Z,6.53
2018-09-27T07:10:47.324Z,7.17
2018-09-27T07:13:16.977Z,6.77
2018-09-27T07:15:46.068Z,7.07
2018-09-27T07:18:15.663Z,7.57
2018-09-27T07:20:45.363Z,7.75
2018-09-27T07:23:15.107Z,7.23
2018-09-27T07:25:45.103Z,7.53
2018-09-27T07:28:14.760Z,7.23
2018-09-27T07:30:44.457Z,6.50
2018-09-27T07:33:14.076Z,7.37
2018-09-27T07:35:44.460Z,7.70
2018-09-27T07:38:14.089Z,7.67
2018-09-27T07:40:43.691Z,7.43
2018-09-27T07:43:13.347Z,7.80
2018-09-27T07:45:43.370Z,7.53
2018-09-27T07:48:13.005Z,7.07
2018-09-27T07:50:42.684Z,7.10
2018-09-27T07:53:12.332Z,6.50
2018-09-27T07:55:42.134Z,7.03
2018-09-27T07:58:12.360Z,6.80
2018-09-27T08:00:42.058Z,6.47
2018-09-27T08:03:11.988Z,7.00
2018-09-27T08:05:41.558Z,6.23
2018-09-27T08:08:11.335Z,6.43
2018-09-27T08:10:40.888Z,5.87
2018-09-27T08:13:10.513Z,6.00
2018-09-27T08:15:40.143Z,6.13
2018-09-27T08:18:10.771Z,6.43
2018-09-27T08:20:40.533Z,5.90
2018-09-27T08:23:10.140Z,5.93
2018-09-27T08:25:39.672Z,5.63
2018-09-27T08:28:09.242Z,5.70
2018-09-27T08:30:38.795Z,6.00
2018-09-27T08:33:08.673Z,6.07
2018-09-27T08:35:38.312Z,5.83
2018-09-27T08:38:08.029Z,6.37
2018-09-27T08:40:37.590Z,5.73
2018-09-27T08:43:07.155Z,5.33
2018-09-27T08:45:36.887Z,4.77
2018-09-27T08:48:06.952Z,5.60
2018-09-27T08:50:36.536Z,5.80
2018-09-27T08:53:06.260Z,5.30
2018-09-27T08:55:36.038Z,5.07
2018-09-27T08:58:06.352Z,5.40
2018-09-27T09:00:36.965Z,5.10
2018-09-27T09:03:07.006Z,5.23
2018-09-27T09:05:36.756Z,4.60
2018-09-27T09:08:07.303Z,5.20
2018-09-27T09:10:37.473Z,5.00
2018-09-27T09:13:07.350Z,4.97
2018-09-27T09:15:37.018Z,5.10
2018-09-27T09:18:10.280Z,4.33
2018-09-27T09:20:40.071Z,4.17
2018-09-27T09:23:10.120Z,4.80
2018-09-27T09:25:39.725Z,4.20
2018-09-27T09:28:09.542Z,4.40
2018-09-27T09:30:39.185Z,4.40
2018-09-27T09:33:08.915Z,4.13
2018-09-27T09:35:38.583Z,4.03
2018-09-27T09:38:08.328Z,4.00
2018-09-27T09:40:37.964Z,4.03
2018-09-27T09:43:08.037Z,4.87
2018-09-27T09:45:37.811Z,4.33
2018-09-27T09:48:07.948Z,4.65
2018-09-27T09:50:40.030Z,4.40
2018-09-27T09:53:09.796Z,4.80
2018-09-27T09:55:40.523Z,4.70
2018-09-27T09:58:10.530Z,4.90
2018-09-27T10:00:41.941Z,4.13
2018-09-27T10:03:11.681Z,4.20
2018-09-27T10:05:41.366Z,4.47
2018-09-27T10:08:11.097Z,4.40
2018-09-27T10:10:40.774Z,4.90
2018-09-27T10:13:10.444Z,4.30
2018-09-27T10:15:40.218Z,4.30
2018-09-27T10:18:09.981Z,4.80
2018-09-27T10:20:39.658Z,3.97
2018-09-27T10:23:09.896Z,4.20
2018-09-27T10:25:39.818Z,4.20
2018-09-27T10:28:09.538Z,4.10
2018-09-27T10:30:39.193Z,3.90
2018-09-27T10:33:09.025Z,4.37
2018-09-27T10:35:38.742Z,4.40
2018-09-27T10:38:09.344Z,4.00
2018-09-27T10:40:39.068Z,3.80
2018-09-27T10:43:08.751Z,4.10
2018-09-27T10:45:38.422Z,3.73
2018-09-27T10:48:08.365Z,3.70
2018-09-27T10:50:38.003Z,3.80
2018-09-27T10:53:08.095Z,3.87
2018-09-27T10:55:37.658Z,3.80
2018-09-27T10:58:08.229Z,3.80
2018-09-27T11:00:38.063Z,3.40
2018-09-27T11:03:07.876Z,3.63
2018-09-27T11:05:37.691Z,3.70
2018-09-27T11:08:07.347Z,3.53
2018-09-27T11:10:37.467Z,3.30
2018-09-27T11:13:07.565Z,3.97
2018-09-27T11:15:37.248Z,3.80
2018-09-27T11:18:08.420Z,3.80
2018-09-27T11:20:39.793Z,4.03
2018-09-27T11:23:09.528Z,3.70
2018-09-27T11:25:39.204Z,3.77
2018-09-27T11:28:08.863Z,3.73
2018-09-27T11:30:42.606Z,3.80
2018-09-27T11:33:16.717Z,3.50
2018-09-27T11:35:46.507Z,3.50
2018-09-27T11:38:18.961Z,3.70
2018-09-27T11:40:49.732Z,3.95
2018-09-27T11:43:20.634Z,4.00
2018-09-27T11:45:51.318Z,3.98
2018-09-27T11:48:24.067Z,4.67
2018-09-27T11:50:56.217Z,4.20
2018-09-27T11:53:25.985Z,3.98
2018-09-27T11:55:57.871Z,4.13
2018-09-27T11:58:27.826Z,3.40
2018-09-27T12:00:58.248Z,3.95
2018-09-27T12:03:28.103Z,4.03
2018-09-27T12:05:58.733Z,3.60
2018-09-27T12:08:28.443Z,3.60
2018-09-27T12:10:59.051Z,4.83
2018-09-27T12:13:31.254Z,3.98
2018-09-27T12:16:00.884Z,4.22
2018-09-27T12:18:30.713Z,3.50
2018-09-27T12:21:02.735Z,3.50
2018-09-27T12:23:36.658Z,4.03
2018-09-27T12:26:08.684Z,4.83
2018-09-27T12:28:38.724Z,4.03
2018-09-27T12:31:08.943Z,4.27
2018-09-27T12:33:39.322Z,4.10
2018-09-27T12:36:08.997Z,4.23
2018-09-27T12:38:38.732Z,5.40
2018-09-27T12:41:08.442Z,5.10
2018-09-27T12:43:38.067Z,4.70
2018-09-27T12:46:08.044Z,5.40
2018-09-27T12:48:37.728Z,4.70
2018-09-27T12:51:07.292Z,5.53
2018-09-27T12:53:36.970Z,5.83
2018-09-27T12:56:07.279Z,4.67
2018-09-27T12:58:37.303Z,5.17
2018-09-27T13:01:07.969Z,5.63
2018-09-27T13:03:39.483Z,5.83
2018-09-27T13:06:11.743Z,5.43
2018-09-27T13:08:42.345Z,4.80
2018-09-27T13:11:12.499Z,5.70
2018-09-27T13:13:42.250Z,5.67
2018-09-27T13:16:11.928Z,6.03
2018-09-27T13:18:41.627Z,6.57
2018-09-27T13:21:11.317Z,5.17
2018-09-27T13:23:41.033Z,5.90
2018-09-27T13:26:10.753Z,6.30
2018-09-27T13:28:40.500Z,5.97
2018-09-27T13:31:10.513Z,5.57
2018-09-27T13:33:40.861Z,5.65
2018-09-27T13:36:10.622Z,5.10
2018-09-27T13:38:40.345Z,5.70
2018-09-27T13:41:10.295Z,5.97
2018-09-27T13:43:40.946Z,6.12
2018-09-27T13:46:11.679Z,6.22
2018-09-27T13:48:41.432Z,5.87
2018-09-27T13:51:11.224Z,6.10
2018-09-27T13:53:40.776Z,7.40
2018-09-27T13:56:10.400Z,6.42
2018-09-27T13:58:40.081Z,7.23
2018-09-27T14:01:10.124Z,7.93
2018-09-27T14:03:39.655Z,8.88
2018-09-27T14:06:09.310Z,10.70
2018-09-27T14:08:38.897Z,10.63
2018-09-27T14:11:08.497Z,11.45
2018-09-27T14:13:38.126Z,12.73
2018-09-27T14:16:07.737Z,11.53
2018-09-27T14:18:37.361Z,11.53
2018-09-27T14:21:07.073Z,10.77
2018-09-27T14:23:36.730Z,12.93
2018-09-27T14:26:06.382Z,12.97
2018-09-27T14:28:36.781Z,12.57
2018-09-27T14:31:07.158Z,12.97
2018-09-27T14:33:37.625Z,12.37
2018-09-27T14:36:08.060Z,13.98
2018-09-27T14:38:38.477Z,12.85
2018-09-27T14:41:08.638Z,14.20
2018-09-27T14:43:39.122Z,13.47
2018-09-27T14:46:09.478Z,12.68
2018-09-27T14:48:40.738Z,13.80
2018-09-27T14:51:11.032Z,14.00
2018-09-27T14:53:41.055Z,13.22
2018-09-27T14:56:11.492Z,13.75
2018-09-27T14:58:41.498Z,12.93
2018-09-27T15:01:11.875Z,15.63
2018-09-27T15:03:42.231Z,15.13
2018-09-27T15:06:11.897Z,15.23
2018-09-27T15:08:41.571Z,14.93
2018-09-27T15:11:11.270Z,15.27
2018-09-27T15:13:40.847Z,15.30
2018-09-27T15:16:10.413Z,15.85
2018-09-27T15:18:41.946Z,16.20
2018-09-27T15:21:11.682Z,13.95
2018-09-27T15:23:41.259Z,15.50
2018-09-27T15:26:13.829Z,15.80
2018-09-27T15:28:43.442Z,16.07
2018-09-27T15:31:13.106Z,16.43
2018-09-27T15:33:42.687Z,15.23
2018-09-27T15:36:12.303Z,16.57
2018-09-27T15:38:42.092Z,16.63
2018-09-27T15:41:13.246Z,14.83
2018-09-27T15:43:42.883Z,15.17
2018-09-27T15:46:12.533Z,13.90
2018-09-27T15:48:42.107Z,14.90
2018-09-27T15:51:11.714Z,15.30
2018-09-27T15:53:41.481Z,16.37
2018-09-27T15:56:11.142Z,15.20
2018-09-27T15:58:40.870Z,14.13
2018-09-27T16:01:10.701Z,14.90
2018-09-27T16:03:40.305Z,14.23
2018-09-27T16:06:09.937Z,12.80
2018-09-27T16:08:39.506Z,13.90
2018-09-27T16:11:09.199Z,14.83
2018-09-27T16:13:39.767Z,12.93
2018-09-27T16:16:09.526Z,15.00
2018-09-27T16:18:39.127Z,12.80
2018-09-27T16:21:08.892Z,11.87
2018-09-27T16:23:38.484Z,12.53
2018-09-27T16:26:08.265Z,12.93
2018-09-27T16:28:39.080Z,12.07
2018-09-27T16:31:08.673Z,12.47
2018-09-27T16:33:39.670Z,12.27
2018-09-27T16:36:13.799Z,13.70
2018-09-27T16:38:43.851Z,13.13
2018-09-27T16:41:13.512Z,12.80
2018-09-27T16:43:43.130Z,13.83
2018-09-27T16:46:12.707Z,13.73
2018-09-27T16:48:42.448Z,13.90
2018-09-27T16:51:12.030Z,14.43
2018-09-27T16:53:41.704Z,13.20
2018-09-27T16:56:11.637Z,13.20
2018-09-27T16:58:41.581Z,13.50
2018-09-27T17:01:11.283Z,13.97
2018-09-27T17:03:40.955Z,13.33
2018-09-27T17:06:10.760Z,13.40
2018-09-27T17:08:40.446Z,12.57
2018-09-27T17:11:10.153Z,13.00
2018-09-27T17:13:39.913Z,13.30
2018-09-27T17:16:10.130Z,13.87
2018-09-27T17:18:40.073Z,13.07
2018-09-27T17:21:10.196Z,13.30
2018-09-27T17:23:40.600Z,13.80
2018-09-27T17:26:10.859Z,12.33
2018-09-27T17:28:41.273Z,12.03
2018-09-27T17:31:11.078Z,11.10
2018-09-27T17:33:40.769Z,9.30
2018-09-27T17:36:11.106Z,9.20
2018-09-27T17:38:42.163Z,8.67
2018-09-27T17:41:11.951Z,9.03
2018-09-27T17:43:41.761Z,8.77
2018-09-27T17:46:11.717Z,8.60
2018-09-27T17:48:41.680Z,7.87
2018-09-27T17:51:12.050Z,8.57
2018-09-27T17:53:42.473Z,8.07
2018-09-27T17:56:12.861Z,9.30
2018-09-27T17:58:43.571Z,8.60
2018-09-27T18:01:14.083Z,13.10
2018-09-27T18:03:43.923Z,12.40
2018-09-27T18:06:13.650Z,11.67
2018-09-27T18:08:43.285Z,11.70
2018-09-27T18:11:12.927Z,10.97
2018-09-27T18:13:42.777Z,10.23
2018-09-27T18:16:12.482Z,9.90
2018-09-27T18:18:42.079Z,10.60
2018-09-27T18:21:11.706Z,11.13
2018-09-27T18:23:41.314Z,11.60
2018-09-27T18:26:10.951Z,11.30
2018-09-27T18:28:40.691Z,10.83
2018-09-27T18:31:10.586Z,11.27
2018-09-27T18:33:49.110Z,12.03
2018-09-27T18:36:18.818Z,12.07
2018-09-27T18:38:48.708Z,12.43
2018-09-27T18:41:18.326Z,12.17
2018-09-27T18:43:47.914Z,12.20
2018-09-27T18:46:17.959Z,11.53
2018-09-27T18:48:47.620Z,12.77
2018-09-27T18:51:17.224Z,12.23
2018-09-27T18:53:46.880Z,12.10
2018-09-27T18:56:16.561Z,11.57
2018-09-27T18:58:46.147Z,12.23
2018-09-27T19:01:15.865Z,11.47
2018-09-27T19:03:45.548Z,11.43
2018-09-27T19:06:15.187Z,11.60
2018-09-27T19:08:44.834Z,10.87
2018-09-27T19:11:14.648Z,11.67
2018-09-27T19:13:44.149Z,10.70
2018-09-27T19:16:13.916Z,9.80
2018-09-27T19:18:43.555Z,9.63
2018-09-27T19:21:13.094Z,9.93
2018-09-27T19:23:42.843Z,8.73
2018-09-27T19:26:12.711Z,8.20
2018-09-27T19:28:42.313Z,8.00
2018-09-27T19:31:11.953Z,8.13
2018-09-27T19:33:41.553Z,7.37
2018-09-27T19:36:11.262Z,7.43
2018-09-27T19:38:40.909Z,6.97
2018-09-27T19:41:10.539Z,6.73
2018-09-27T19:43:40.214Z,7.00
2018-09-27T19:46:10.128Z,6.90
2018-09-27T19:48:39.985Z,7.00
2018-09-27T19:51:09.626Z,6.20
2018-09-27T19:53:39.290Z,6.53
2018-09-27T19:56:09.396Z,6.33
2018-09-27T19:58:38.988Z,6.17
2018-09-27T20:01:08.833Z,6.17
2018-09-27T20:03:38.440Z,6.10
2018-09-27T20:06:08.179Z,6.23
2018-09-27T20:08:37.755Z,6.03
2018-09-27T20:11:07.366Z,6.47
2018-09-27T20:13:37.032Z,6.37
2018-09-27T20:16:06.729Z,6.63
2018-09-27T20:18:36.385Z,6.57
2018-09-27T20:21:05.995Z,6.37
2018-09-27T20:23:35.541Z,6.43
2018-09-27T20:26:05.162Z,7.00
2018-09-27T20:28:35.134Z,7.03
2018-09-27T20:31:04.723Z,7.10
2018-09-27T20:33:34.358Z,7.80
2018-09-27T20:36:03.960Z,7.63
2018-09-27T20:38:33.563Z,7.90
2018-09-27T20:41:03.218Z,7.57
2018-09-27T20:43:32.820Z,7.13
2018-09-27T20:46:02.453Z,7.40
2018-09-27T20:48:32.113Z,6.27
2018-09-27T20:51:01.838Z,6.37
2018-09-27T20:53:31.476Z,6.57
2018-09-27T20:56:01.090Z,6.13
2018-09-27T20:58:30.752Z,6.33
2018-09-27T21:01:00.328Z,6.20
2018-09-27T21:03:29.940Z,5.77
2018-09-27T21:05:59.569Z,5.87
2018-09-27T21:08:29.205Z,5.70
2018-09-27T21:10:58.818Z,5.63
2018-09-27T21:13:28.428Z,4.80
2018-09-27T21:15:58.080Z,4.70
2018-09-27T21:18:27.719Z,4.40
2018-09-27T21:20:57.364Z,4.40
2018-09-27T21:23:26.997Z,3.73
2018-09-27T21:25:56.654Z,4.20
2018-09-27T21:28:26.292Z,4.17
2018-09-27T21:30:55.886Z,4.03
2018-09-27T21:33:25.474Z,3.50
2018-09-27T21:35:55.176Z,4.07
2018-09-27T21:38:24.782Z,3.83
2018-09-27T21:40:54.413Z,3.73
2018-09-27T21:43:24.061Z,3.97
2018-09-27T21:45:53.644Z,3.70
2018-09-27T21:48:23.334Z,3.70
2018-09-27T21:50:52.994Z,3.73
2018-09-27T21:53:22.606Z,3.93
2018-09-27T21:55:52.202Z,4.00
2018-09-27T21:58:21.833Z,3.40
2018-09-27T22:00:52.553Z,3.47
2018-09-27T22:03:23.761Z,4.20
2018-09-27T22:05:53.814Z,3.50
2018-09-27T22:08:23.564Z,4.00
2018-09-27T22:10:53.236Z,4.10
2018-09-27T22:13:22.847Z,3.70
2018-09-27T22:15:52.433Z,3.60
2018-09-27T22:18:22.219Z,3.57
2018-09-27T22:20:51.847Z,3.70
2018-09-27T22:23:21.484Z,3.20
2018-09-27T22:25:51.109Z,2.87
2018-09-27T22:28:20.863Z,3.10
2018-09-27T22:30:50.433Z,2.97
2018-09-27T22:33:19.947Z,2.87
2018-09-27T22:35:49.508Z,2.80
2018-09-27T22:38:19.183Z,2.57
2018-09-27T22:40:48.755Z,2.73
2018-09-27T22:43:18.381Z,2.80
2018-09-27T22:45:47.988Z,2.40
2018-09-27T22:48:17.564Z,2.50
2018-09-27T22:50:47.169Z,2.50
2018-09-27T22:53:16.810Z,2.67
2018-09-27T22:55:46.388Z,2.20
2018-09-27T22:58:16.007Z,2.63
2018-09-27T23:00:45.685Z,2.40
2018-09-27T23:03:15.286Z,2.13
2018-09-27T23:05:44.869Z,2.50
2018-09-27T23:08:14.482Z,2.43
2018-09-27T23:10:44.124Z,2.30
2018-09-27T23:13:13.744Z,2.50
2018-09-27T23:15:43.310Z,2.13
2018-09-27T23:18:13.049Z,2.60
2018-09-27T23:20:42.676Z,2.90
2018-09-27T23:23:12.297Z,2.50
2018-09-27T23:25:41.878Z,2.50
2018-09-27T23:28:11.500Z,2.40
2018-09-27T23:30:41.420Z,2.20
2018-09-27T23:33:11.235Z,2.37
2018-09-27T23:35:40.913Z,2.17
2018-09-27T23:38:10.660Z,2.30
2018-09-27T23:40:40.280Z,2.10
2018-09-27T23:43:09.875Z,2.30
2018-09-27T23:45:39.453Z,2.40
2018-09-27T23:48:09.084Z,3.10
2018-09-27T23:50:38.735Z,3.87
2018-09-27T23:53:08.355Z,4.00
2018-09-27T23:55:37.971Z,3.90
2018-09-27T23:58:07.617Z,5.00
